Time;durP1;ratioP1;P1;durP2;ratioP2;P2;SDS_P1;SDS_P2;PMS_P1;PMS_P2;Temp;Humidity;BMP_temperature;BMP_pressure;BME280_temperature;BME280_humidity;BME280_pressure;Samples;Min_cycle;Max_cycle;Signal;HPM_P1;HPM_P2
2023/07/10 00:01:44;;;;;;;;;;;;;;;19.93;56.87;100285.92;108209;1253;61251;-78
2023/07/10 00:04:15;;;;;;;;;;;;;;;19.91;57.03;100286.10;108154;1253;74447;-78
2023/07/10 00:06:42;;;;;;;;;;;;;;;19.88;57.19;100279.80;108224;1253;72681;-78
2023/07/10 00:09:11;;;;;;;;;;;;;;;19.87;57.30;100284.46;108165;1253;72518;-77
2023/07/10 00:11:38;;;;;;;;;;;;;;;19.87;57.63;100288.20;107991;1254;61974;-77
2023/07/10 00:14:20;;;;;;;;;;;;;;;19.87;57.51;100284.45;108144;1253;61349;-77
2023/07/10 00:16:48;;;;;;;;;;;;;;;19.85;57.47;100280.39;108234;1253;74580;-79
2023/07/10 00:19:27;;;;;;;;;;;;;;;19.85;57.54;100281.07;108450;1253;72660;-79
2023/07/10 00:22:11;;;;;;;;;;;;;;;19.82;57.36;100281.33;108192;1256;71541;-81
2023/07/10 00:24:39;;;;;;;;;;;;;;;19.79;57.35;100277.95;108197;1253;61139;-78
2023/07/10 00:27:11;;;;;;;;;;;;;;;19.77;57.32;100276.08;108072;1253;61227;-77
2023/07/10 00:29:44;;;;;;;;;;;;;;;19.75;57.27;100278.55;108191;1253;74569;-78
2023/07/10 00:32:27;;;;;;;;;;;;;;;19.73;57.36;100280.56;108390;1254;72880;-78
2023/07/10 00:34:59;;;;;;;;;;;;;;;19.72;57.44;100281.38;108597;1253;71420;-79
2023/07/10 00:37:27;;;;;;;;;;;;;;;19.70;57.59;100284.48;108391;1253;61283;-77
2023/07/10 00:40:03;;;;;;;;;;;;;;;19.70;57.61;100288.52;108267;1254;60990;-79
2023/07/10 00:42:46;;;;;;;;;;;;;;;19.70;57.67;100290.04;108113;1254;73243;-78
2023/07/10 00:45:30;;;;;;;;;;;;;;;19.70;57.78;100287.71;108057;1259;70261;-78
2023/07/10 00:48:24;;;;;;;;;;;;;;;19.70;57.74;100286.47;108217;1254;72696;-78
2023/07/10 00:50:52;;;;;;;;;;;;;;;19.70;57.82;100287.02;108270;1253;61256;-75
2023/07/10 00:53:31;;;;;;;;;;;;;;;19.69;57.90;100292.19;108085;1255;61148;-78
2023/07/10 00:56:17;;;;;;;;;;;;;;;19.67;57.95;100291.33;108048;1254;75685;-78
2023/07/10 00:58:48;;;;;;;;;;;;;;;19.65;58.18;100292.55;108119;1253;72029;-77
2023/07/10 01:01:28;;;;;;;;;;;;;;;19.62;58.07;100286.34;108193;1253;72789;-77
2023/07/10 01:04:04;;;;;;;;;;;;;;;19.59;58.26;100291.34;108177;1253;62042;-78
2023/07/10 01:06:40;;;;;;;;;;;;;;;19.55;58.44;100291.81;108178;1253;61119;-77
2023/07/10 01:09:12;;;;;;;;;;;;;;;19.54;58.69;100291.34;108183;1253;74660;-78
2023/07/10 01:12:05;;;;;;;;;;;;;;;19.52;58.89;100299.19;108203;1253;71452;-77
2023/07/10 01:14:48;;;;;;;;;;;;;;;19.50;59.06;100294.85;108134;1253;73784;-78
2023/07/10 01:17:16;;;;;;;;;;;;;;;19.51;59.25;100293.06;108206;1253;61873;-78
2023/07/10 01:19:45;;;;;;;;;;;;;;;19.49;59.47;100297.98;108186;1253;61251;-78
2023/07/10 01:22:12;;;;;;;;;;;;;;;19.48;59.56;100297.28;108192;1256;73448;-77
2023/07/10 01:24:52;;;;;;;;;;;;;;;19.45;59.64;100295.29;107930;1253;72598;-78
2023/07/10 01:27:19;;;;;;;;;;;;;;;19.44;59.81;100293.68;108155;1254;72659;-77
2023/07/10 01:30:06;;;;;;;;;;;;;;;19.42;59.78;100296.83;108070;1253;63185;-77
2023/07/10 01:32:34;;;;;;;;;;;;;;;19.39;59.83;100299.73;108097;1253;60497;-78
2023/07/10 01:35:03;;;;;;;;;;;;;;;19.37;59.91;100298.01;108113;1253;74628;-78
2023/07/10 01:37:30;;;;;;;;;;;;;;;19.36;59.96;100300.69;108077;1254;71458;-78
2023/07/10 01:39:57;;;;;;;;;;;;;;;19.34;60.08;100302.45;108040;1254;71179;-78
2023/07/10 01:42:24;;;;;;;;;;;;;;;19.31;60.17;100306.05;108121;1255;61263;-77
2023/07/10 01:44:51;;;;;;;;;;;;;;;19.30;60.21;100307.00;108218;1253;61100;-78
2023/07/10 01:47:18;;;;;;;;;;;;;;;19.31;60.32;100303.38;108199;1253;74703;-78
2023/07/10 01:49:55;;;;;;;;;;;;;;;19.29;60.32;100304.18;108111;1254;70307;-76
2023/07/10 01:52:23;;;;;;;;;;;;;;;19.28;60.47;100310.08;108115;1255;73921;-77
2023/07/10 01:54:50;;;;;;;;;;;;;;;19.27;60.38;100312.27;108151;1253;62021;-77
2023/07/10 01:57:18;;;;;;;;;;;;;;;19.26;60.41;100313.42;108045;1253;61382;-78
2023/07/10 01:59:45;;;;;;;;;;;;;;;19.24;60.29;100313.46;108105;1253;74530;-79
2023/07/10 02:02:12;;;;;;;;;;;;;;;19.21;60.25;100316.35;108133;1254;72725;-76
2023/07/10 02:04:39;;;;;;;;;;;;;;;19.19;60.40;100321.02;108014;1253;72660;-77
2023/07/10 02:07:06;;;;;;;;;;;;;;;19.19;60.42;100322.01;108245;1253;63055;-78
2023/07/10 02:09:34;;;;;;;;;;;;;;;19.18;60.45;100323.05;108167;1253;61094;-78
2023/07/10 02:12:01;;;;;;;;;;;;;;;19.16;60.47;100323.66;108091;1253;74608;-79
2023/07/10 02:14:29;;;;;;;;;;;;;;;19.14;60.37;100322.09;108175;1257;73168;-78
2023/07/10 02:16:58;;;;;;;;;;;;;;;19.12;60.35;100325.73;108027;1253;71575;-78
2023/07/10 02:19:25;;;;;;;;;;;;;;;19.11;60.20;100329.07;108164;1253;61114;-78
2023/07/10 02:21:52;;;;;;;;;;;;;;;19.11;60.18;100338.60;108064;1253;61122;-78
2023/07/10 02:24:18;;;;;;;;;;;;;;;19.12;60.13;100340.86;108163;1253;73177;-78
2023/07/10 02:26:45;;;;;;;;;;;;;;;19.12;60.19;100340.42;108189;1253;71312;-78
2023/07/10 02:29:12;;;;;;;;;;;;;;;19.14;60.23;100337.86;108187;1253;72782;-78
2023/07/10 02:31:39;;;;;;;;;;;;;;;19.15;60.24;100335.92;108167;1254;61777;-77
2023/07/10 02:34:05;;;;;;;;;;;;;;;19.17;60.17;100339.01;108007;1253;60108;-77
2023/07/10 02:36:33;;;;;;;;;;;;;;;19.16;59.96;100337.43;108222;1253;72722;-76
2023/07/10 02:39:00;;;;;;;;;;;;;;;19.17;60.01;100337.00;108149;1253;76491;-78
2023/07/10 02:41:27;;;;;;;;;;;;;;;19.18;59.98;100333.11;108186;1253;72426;-78
2023/07/10 02:43:54;;;;;;;;;;;;;;;19.19;59.83;100340.51;108080;1253;61164;-78
2023/07/10 02:46:21;;;;;;;;;;;;;;;19.21;59.81;100340.82;108077;1259;61327;-78
2023/07/10 02:48:48;;;;;;;;;;;;;;;19.23;59.84;100336.09;108164;1256;74711;-78
2023/07/10 02:51:15;;;;;;;;;;;;;;;19.24;59.81;100338.75;107959;1254;71440;-77
2023/07/10 02:53:41;;;;;;;;;;;;;;;19.26;59.77;100339.58;108215;1253;73886;-79
2023/07/10 02:56:08;;;;;;;;;;;;;;;19.28;59.70;100336.61;108238;1253;61224;-79
2023/07/10 02:58:36;;;;;;;;;;;;;;;19.29;59.92;100343.02;108061;1253;61299;-76
2023/07/10 03:01:03;;;;;;;;;;;;;;;19.30;59.65;100353.36;108286;1253;73417;-77
2023/07/10 03:03:30;;;;;;;;;;;;;;;19.31;59.34;100354.83;108110;1259;72761;-77
2023/07/10 03:06:00;;;;;;;;;;;;;;;19.30;59.28;100353.65;108077;1254;72496;-78
2023/07/10 03:08:28;;;;;;;;;;;;;;;19.31;59.27;100351.89;108214;1253;61219;-78
2023/07/10 03:11:02;;;;;;;;;;;;;;;19.33;59.30;100356.71;108119;1253;61150;-80
2023/07/10 03:13:30;;;;;;;;;;;;;;;19.34;59.23;100351.73;108177;1253;74806;-78
2023/07/10 03:16:00;;;;;;;;;;;;;;;19.38;59.08;100350.30;108279;1253;72557;-78
2023/07/10 03:18:27;;;;;;;;;;;;;;;19.44;59.16;100347.13;108246;1253;72719;-78
2023/07/10 03:20:54;;;;;;;;;;;;;;;19.52;59.22;100349.33;108064;1253;61873;-78
2023/07/10 03:23:22;;;;;;;;;;;;;;;19.59;59.13;100354.14;108234;1254;61206;-77
2023/07/10 03:25:49;;;;;;;;;;;;;;;19.67;59.18;100352.31;108271;1253;74640;-78
2023/07/10 03:28:16;;;;;;;;;;;;;;;19.74;59.13;100357.17;108181;1253;72511;-78
2023/07/10 03:30:42;;;;;;;;;;;;;;;19.81;58.84;100352.74;108250;1253;72735;-79
2023/07/10 03:33:12;;;;;;;;;;;;;;;19.90;58.84;100355.42;108200;1253;61836;-78
2023/07/10 03:35:39;;;;;;;;;;;;;;;19.98;58.53;100358.11;108271;1253;61148;-77
2023/07/10 03:38:06;;;;;;;;;;;;;;;20.06;58.19;100355.98;108121;1253;74634;-78
2023/07/10 03:40:34;;;;;;;;;;;;;;;20.15;57.88;100353.54;108147;1256;73263;-78
2023/07/10 03:43:01;;;;;;;;;;;;;;;20.25;57.73;100353.98;108140;1259;72788;-78
2023/07/10 03:45:28;;;;;;;;;;;;;;;20.32;57.45;100351.73;108193;1253;61969;-79
2023/07/10 03:47:55;;;;;;;;;;;;;;;20.40;57.05;100349.14;108210;1253;61141;-77
2023/07/10 03:50:22;;;;;;;;;;;;;;;20.48;56.85;100352.64;108107;1253;75033;-78
2023/07/10 03:52:48;;;;;;;;;;;;;;;20.56;56.44;100355.63;108238;1253;72551;-75
2023/07/10 03:55:15;;;;;;;;;;;;;;;20.64;56.25;100355.00;108155;1254;72703;-79
2023/07/10 03:57:43;;;;;;;;;;;;;;;20.71;55.65;100352.46;108170;1253;61256;-79
2023/07/10 04:00:10;;;;;;;;;;;;;;;20.76;55.20;100347.63;108263;1253;61176;-78
2023/07/10 04:02:40;;;;;;;;;;;;;;;20.81;54.51;100345.04;108241;1253;74717;-76
2023/07/10 04:05:09;;;;;;;;;;;;;;;20.87;54.36;100345.02;108462;1253;72733;-78
2023/07/10 04:07:36;;;;;;;;;;;;;;;20.92;54.02;100345.73;108504;1253;71306;-76
2023/07/10 04:10:03;;;;;;;;;;;;;;;20.97;53.89;100344.70;108439;1253;61962;-78
2023/07/10 04:12:30;;;;;;;;;;;;;;;21.04;53.82;100338.50;108446;1253;61248;-78
2023/07/10 04:14:58;;;;;;;;;;;;;;;21.11;53.44;100341.47;108534;1253;73152;-78
2023/07/10 04:17:24;;;;;;;;;;;;;;;21.20;53.41;100342.01;108495;1254;71427;-79
2023/07/10 04:19:51;;;;;;;;;;;;;;;21.27;53.21;100339.26;108571;1253;71564;-78
2023/07/10 04:22:18;;;;;;;;;;;;;;;21.35;52.92;100342.02;108625;1253;61221;-78
2023/07/10 04:24:44;;;;;;;;;;;;;;;21.42;52.67;100340.73;108444;1253;61119;-78
2023/07/10 04:27:11;;;;;;;;;;;;;;;21.51;52.31;100337.86;108456;1254;72153;-77
2023/07/10 04:29:38;;;;;;;;;;;;;;;21.58;52.21;100340.35;108590;1253;72691;-78
2023/07/10 04:32:07;;;;;;;;;;;;;;;21.66;52.12;100338.19;108527;1255;71042;-78
2023/07/10 04:34:34;;;;;;;;;;;;;;;21.74;52.16;100336.46;108578;1253;61266;-78
2023/07/10 04:37:01;;;;;;;;;;;;;;;21.84;51.92;100336.30;108531;1254;61173;-78
2023/07/10 04:39:28;;;;;;;;;;;;;;;21.91;51.79;100333.98;108460;1255;73192;-78
2023/07/10 04:41:55;;;;;;;;;;;;;;;21.98;51.73;100331.99;108469;1257;70235;-79
2023/07/10 04:44:23;;;;;;;;;;;;;;;22.08;51.55;100324.89;108312;1253;71918;-78
2023/07/10 04:46:51;;;;;;;;;;;;;;;22.19;51.21;100327.91;108273;1254;61736;-78
2023/07/10 04:49:19;;;;;;;;;;;;;;;22.27;50.79;100327.07;108270;1253;61093;-77
2023/07/10 04:51:46;;;;;;;;;;;;;;;22.35;50.74;100331.66;108251;1254;75927;-78
2023/07/10 04:54:13;;;;;;;;;;;;;;;22.42;50.68;100328.23;108295;1253;72705;-76
2023/07/10 04:56:40;;;;;;;;;;;;;;;22.47;50.07;100328.16;108146;1253;72582;-78
2023/07/10 04:59:08;;;;;;;;;;;;;;;22.51;50.08;100326.34;108159;1256;61160;-77
2023/07/10 05:01:35;;;;;;;;;;;;;;;22.52;50.17;100322.33;108246;1254;59011;-77
2023/07/10 05:04:06;;;;;;;;;;;;;;;22.56;50.60;100323.07;108262;1256;73376;-78
2023/07/10 05:06:34;;;;;;;;;;;;;;;22.63;50.13;100323.34;108247;1253;72717;-77
2023/07/10 05:09:02;;;;;;;;;;;;;;;22.67;49.76;100322.23;108047;1259;72671;-78
2023/07/10 05:11:33;;;;;;;;;;;;;;;22.74;49.34;100322.59;108299;1253;61231;-78
2023/07/10 05:14:03;;;;;;;;;;;;;;;22.81;49.51;100317.96;108266;1254;61350;-77
2023/07/10 05:16:40;;;;;;;;;;;;;;;22.87;49.54;100316.05;108169;1257;73390;-77
2023/07/10 05:19:17;;;;;;;;;;;;;;;22.95;49.52;100317.54;108126;1254;73403;-78
2023/07/10 05:21:54;;;;;;;;;;;;;;;23.05;49.23;100313.05;107973;1255;71612;-77
2023/07/10 05:24:25;;;;;;;;;;;;;;;23.08;48.73;100306.70;108104;1255;61109;-78
2023/07/10 05:26:56;;;;;;;;;;;;;;;23.13;48.74;100307.62;108111;1254;61167;-79
2023/07/10 05:29:35;;;;;;;;;;;;;;;23.22;48.72;100309.55;108130;1258;74363;-78
2023/07/10 05:32:12;;;;;;;;;;;;;;;23.29;48.83;100307.58;108203;1253;71581;-78
2023/07/10 05:34:54;;;;;;;;;;;;;;;23.38;48.65;100313.88;108187;1257;73572;-78
2023/07/10 05:37:37;;;;;;;;;;;;;;;23.43;47.96;100313.23;108223;1253;61218;-77
2023/07/10 05:40:17;;;;;;;;;;;;;;;23.45;47.85;100310.00;108262;1254;62075;-78
2023/07/10 05:43:10;;;;;;;;;;;;;;;23.49;47.59;100313.07;108280;1254;74754;-78
2023/07/10 05:46:01;;;;;;;;;;;;;;;23.54;47.40;100313.14;108189;1254;72280;-78
2023/07/10 05:48:52;;;;;;;;;;;;;;;23.56;47.34;100312.65;108244;1256;72384;-79
2023/07/10 05:51:24;;;;;;;;;;;;;;;23.61;47.44;100312.63;108206;1257;61245;-77
2023/07/10 05:53:53;;;;;;;;;;;;;;;23.70;47.38;100311.91;108273;1253;61086;-77
2023/07/10 05:56:35;;;;;;;;;;;;;;;23.79;47.09;100311.59;108221;1253;74757;-78
2023/07/10 05:59:02;;;;;;;;;;;;;;;23.86;46.75;100312.63;108217;1257;72794;-78
2023/07/10 06:01:29;;;;;;;;;;;;;;;23.90;46.13;100313.66;108308;1253;72492;-78
2023/07/10 06:03:56;;;;;;;;;;;;;;;23.94;46.19;100312.42;108165;1255;61162;-78
2023/07/10 06:06:24;;;;;;;;;;;;;;;24.00;45.67;100312.10;108228;1254;59958;-78
2023/07/10 06:08:52;;;;;;;;;;;;;;;24.09;45.40;100311.45;108250;1255;74487;-79
2023/07/10 06:11:19;;;;;;;;;;;;;;;24.21;45.19;100311.35;108265;1253;73114;-78
2023/07/10 06:13:46;;;;;;;;;;;;;;;24.30;43.87;100312.66;108159;1253;72675;-78
2023/07/10 06:16:14;;;;;;;;;;;;;;;24.34;43.13;100314.14;108277;1253;61253;-77
2023/07/10 06:18:42;;;;;;;;;;;;;;;24.37;43.39;100313.05;108201;1254;61083;-79
2023/07/10 06:21:09;;;;;;;;;;;;;;;24.44;42.79;100319.08;108068;1254;74544;-77
2023/07/10 06:23:37;;;;;;;;;;;;;;;24.51;42.45;100314.95;108281;1256;72605;-79
2023/07/10 06:26:03;;;;;;;;;;;;;;;24.57;42.04;100316.09;108341;1254;70860;-76
2023/07/10 06:28:33;;;;;;;;;;;;;;;24.62;42.14;100313.44;108244;1254;61220;-77
2023/07/10 06:31:01;;;;;;;;;;;;;;;24.66;42.45;100312.36;108341;1253;59461;-77
2023/07/10 06:33:29;;;;;;;;;;;;;;;24.70;42.03;100312.91;108288;1256;74452;-77
2023/07/10 06:35:56;;;;;;;;;;;;;;;24.71;41.84;100311.48;108039;1254;72750;-77
2023/07/10 06:38:23;;;;;;;;;;;;;;;24.73;41.57;100303.77;108258;1256;72376;-77
2023/07/10 06:40:50;;;;;;;;;;;;;;;24.75;41.81;100301.63;108242;1254;61036;-78
2023/07/10 06:43:18;;;;;;;;;;;;;;;24.78;41.67;100302.17;108203;1256;61131;-78
2023/07/10 06:45:45;;;;;;;;;;;;;;;24.84;41.07;100297.52;108187;1254;74695;-78
2023/07/10 06:48:12;;;;;;;;;;;;;;;24.86;41.51;100299.97;108290;1253;71701;-77
2023/07/10 06:50:39;;;;;;;;;;;;;;;24.90;41.28;100298.80;108262;1256;72955;-78
2023/07/10 06:53:06;;;;;;;;;;;;;;;24.93;41.57;100299.36;108138;1254;61303;-77
2023/07/10 06:55:55;;;;;;;;;;;;;;;24.99;41.09;100291.20;108116;1256;61720;-78
2023/07/10 06:58:22;;;;;;;;;;;;;;;25.05;41.20;100294.89;108008;1254;75216;-77
2023/07/10 07:00:48;;;;;;;;;;;;;;;25.06;41.18;100294.27;108123;1254;70885;-79
2023/07/10 07:03:17;;;;;;;;;;;;;;;25.10;41.68;100291.00;108125;1254;72705;-77
2023/07/10 07:05:46;;;;;;;;;;;;;;;25.17;41.53;100294.92;108039;1260;61125;-78
2023/07/10 07:08:13;;;;;;;;;;;;;;;25.25;41.45;100287.95;108128;1256;61771;-78
2023/07/10 07:10:43;;;;;;;;;;;;;;;25.35;41.89;100287.81;108014;1255;73488;-77
2023/07/10 07:13:10;;;;;;;;;;;;;;;25.46;41.37;100285.83;108122;1259;71185;-78
2023/07/10 07:15:37;;;;;;;;;;;;;;;25.53;40.27;100283.59;108169;1255;72820;-78
2023/07/10 07:18:03;;;;;;;;;;;;;;;25.56;39.71;100283.24;108080;1256;61285;-78
2023/07/10 07:20:31;;;;;;;;;;;;;;;25.58;38.96;100286.35;108233;1254;61170;-79
2023/07/10 07:22:58;;;;;;;;;;;;;;;25.57;38.88;100284.05;108264;1257;74644;-77
2023/07/10 07:25:25;;;;;;;;;;;;;;;25.56;38.86;100279.98;108196;1254;71339;-77
2023/07/10 07:27:52;;;;;;;;;;;;;;;25.56;38.97;100283.72;107900;1260;71727;-77
2023/07/10 07:30:19;;;;;;;;;;;;;;;25.56;38.88;100279.19;108197;1254;61154;-77
2023/07/10 07:32:47;;;;;;;;;;;;;;;25.59;39.07;100278.61;108101;1255;61737;-77
2023/07/10 07:35:14;;;;;;;;;;;;;;;25.63;39.17;100274.71;108009;1257;72895;-78
2023/07/10 07:37:41;;;;;;;;;;;;;;;25.71;38.73;100275.06;108106;1253;72811;-77
2023/07/10 07:40:16;;;;;;;;;;;;;;;25.77;38.53;100265.08;108139;1256;71551;-78
2023/07/10 07:42:45;;;;;;;;;;;;;;;25.85;38.42;100266.25;108153;1254;61374;-76
2023/07/10 07:45:12;;;;;;;;;;;;;;;25.93;38.59;100265.75;108205;1256;61253;-77
2023/07/10 07:47:40;;;;;;;;;;;;;;;25.97;38.26;100260.41;108181;1257;74730;-77
2023/07/10 07:50:08;;;;;;;;;;;;;;;26.00;38.53;100259.19;108234;1256;72723;-78
2023/07/10 07:52:35;;;;;;;;;;;;;;;26.07;38.60;100256.89;108141;1257;72716;-77
2023/07/10 07:55:05;;;;;;;;;;;;;;;26.15;38.43;100261.45;108303;1254;61132;-77
2023/07/10 07:57:32;;;;;;;;;;;;;;;26.12;38.01;100263.45;108192;1254;61132;-79
2023/07/10 07:59:59;;;;;;;;;;;;;;;25.99;38.17;100260.51;108268;1254;74637;-77
2023/07/10 08:02:28;;;;;;;;;;;;;;;25.95;38.35;100257.88;108204;1253;72724;-77
2023/07/10 08:04:55;;;;;;;;;;;;;;;25.93;37.74;100260.90;108130;1256;72703;-79
2023/07/10 08:07:22;;;;;;;;;;;;;;;25.89;37.45;100256.30;108231;1254;61253;-78
2023/07/10 08:09:49;;;;;;;;;;;;;;;25.84;37.57;100258.63;108197;1257;59843;-78
2023/07/10 08:12:16;;;;;;;;;;;;;;;25.74;37.77;100260.58;108196;1253;73500;-77
2023/07/10 08:14:44;;;;;;;;;;;;;;;25.64;37.62;100256.89;108130;1253;73309;-77
2023/07/10 08:17:11;;;;;;;;;;;;;;;25.58;37.74;100256.02;108210;1254;72569;-78
2023/07/10 08:19:40;;;;;;;;;;;;;;;25.62;38.09;100253.58;108203;1254;61255;-75
2023/07/10 08:22:08;;;;;;;;;;;;;;;25.75;38.06;100252.55;108199;1253;61888;-78
2023/07/10 08:24:35;;;;;;;;;;;;;;;25.86;38.00;100250.77;108213;1257;74730;-77
2023/07/10 08:27:02;;;;;;;;;;;;;;;25.94;37.78;100252.10;108118;1254;73890;-79
2023/07/10 08:29:31;;;;;;;;;;;;;;;26.07;37.32;100248.20;108195;1254;72426;-78
2023/07/10 08:31:59;;;;;;;;;;;;;;;26.22;37.61;100241.60;108170;1253;61132;-75
2023/07/10 08:34:27;;;;;;;;;;;;;;;26.42;36.66;100246.17;108198;1254;61126;-79
2023/07/10 08:36:59;;;;;;;;;;;;;;;26.52;36.29;100240.36;108299;1253;74638;-78
2023/07/10 08:39:26;;;;;;;;;;;;;;;26.60;36.17;100245.09;108299;1254;72831;-75
2023/07/10 08:41:56;;;;;;;;;;;;;;;26.67;36.18;100241.18;108127;1257;71365;-79
2023/07/10 08:44:28;;;;;;;;;;;;;;;26.75;36.32;100239.63;108173;1254;61120;-76
2023/07/10 08:46:55;;;;;;;;;;;;;;;26.83;36.08;100233.22;108121;1254;61241;-78
2023/07/10 08:49:35;;;;;;;;;;;;;;;26.94;35.62;100232.23;108205;1255;73839;-78
2023/07/10 08:52:10;;;;;;;;;;;;;;;27.00;35.12;100241.46;108102;1254;72810;-77
2023/07/10 08:54:38;;;;;;;;;;;;;;;26.97;35.07;100239.23;108209;1254;72575;-77
2023/07/10 08:57:13;;;;;;;;;;;;;;;26.93;35.30;100233.72;108236;1255;61119;-78
2023/07/10 08:59:51;;;;;;;;;;;;;;;27.01;35.94;100236.45;108168;1254;61228;-77
2023/07/10 09:02:20;;;;;;;;;;;;;;;27.15;35.78;100233.89;108179;1254;75864;-76
2023/07/10 09:04:48;;;;;;;;;;;;;;;27.30;35.88;100230.50;108225;1253;72737;-76
2023/07/10 09:07:17;;;;;;;;;;;;;;;27.42;35.45;100229.42;108274;1254;72904;-76
2023/07/10 09:09:47;;;;;;;;;;;;;;;27.46;34.84;100220.20;108162;1260;61199;-76
2023/07/10 09:12:25;;;;;;;;;;;;;;;27.44;34.55;100223.63;108167;1254;61154;-76
2023/07/10 09:14:53;;;;;;;;;;;;;;;27.45;34.69;100221.06;108091;1254;75951;-77
2023/07/10 09:17:29;;;;;;;;;;;;;;;27.58;34.24;100224.92;108113;1254;72656;-78
2023/07/10 09:19:59;;;;;;;;;;;;;;;27.71;33.40;100227.06;108116;1259;72746;-78
2023/07/10 09:22:25;;;;;;;;;;;;;;;27.70;33.02;100224.55;108221;1253;61160;-78
2023/07/10 09:24:53;;;;;;;;;;;;;;;27.56;33.23;100225.77;108213;1254;61350;-79
2023/07/10 09:27:20;;;;;;;;;;;;;;;27.43;33.62;100224.73;108217;1254;74720;-78
2023/07/10 09:29:47;;;;;;;;;;;;;;;27.31;34.12;100221.19;108191;1254;60499;-77
2023/07/10 09:32:14;;;;;;;;;;;;;;;27.21;34.56;100223.99;108232;1255;72459;-78
2023/07/10 09:34:48;;;;;;;;;;;;;;;27.13;34.51;100221.87;108263;1253;61253;-77
2023/07/10 09:37:16;;;;;;;;;;;;;;;27.06;35.05;100228.21;108220;1257;61589;-77
2023/07/10 09:39:43;;;;;;;;;;;;;;;26.97;35.01;100226.55;108205;1256;76110;-77
2023/07/10 09:42:11;;;;;;;;;;;;;;;26.87;35.31;100226.37;108220;1254;72547;-77
2023/07/10 09:44:39;;;;;;;;;;;;;;;26.80;35.34;100229.27;108195;1256;72490;-77
2023/07/10 09:47:09;;;;;;;;;;;;;;;26.76;35.70;100227.13;108115;1254;61343;-79
2023/07/10 09:49:37;;;;;;;;;;;;;;;26.75;36.06;100225.08;108175;1254;61151;-78
2023/07/10 09:52:03;;;;;;;;;;;;;;;26.80;36.50;100224.97;108242;1254;73465;-77
2023/07/10 09:54:35;;;;;;;;;;;;;;;26.87;36.46;100225.75;108146;1254;72927;-77
2023/07/10 09:57:03;;;;;;;;;;;;;;;26.96;36.09;100223.72;108183;1254;72773;-78
2023/07/10 09:59:31;;;;;;;;;;;;;;;27.09;36.06;100227.29;108222;1254;61209;-77
2023/07/10 10:02:02;;;;;;;;;;;;;;;27.16;36.09;100224.02;108175;1254;61161;-77
2023/07/10 10:04:30;;;;;;;;;;;;;;;27.22;35.70;100224.32;108156;1254;73658;-77
2023/07/10 10:06:58;;;;;;;;;;;;;;;27.31;35.50;100226.90;108175;1254;71174;-78
2023/07/10 10:09:28;;;;;;;;;;;;;;;27.35;35.67;100223.57;108164;1259;72757;-78
2023/07/10 10:12:00;;;;;;;;;;;;;;;27.28;35.51;100224.67;108183;1254;61157;-77
2023/07/10 10:14:34;;;;;;;;;;;;;;;27.15;35.82;100227.77;108192;1254;61179;-77
2023/07/10 10:17:02;;;;;;;;;;;;;;;26.99;36.30;100228.46;108151;1254;74372;-77
2023/07/10 10:19:31;;;;;;;;;;;;;;;26.88;36.74;100232.88;108214;1259;74181;-77
2023/07/10 10:21:58;;;;;;;;;;;;;;;26.84;36.80;100235.41;108165;1254;72764;-78
2023/07/10 10:24:25;;;;;;;;;;;;;;;26.90;37.28;100238.61;108172;1254;61234;-77
2023/07/10 10:26:53;;;;;;;;;;;;;;;27.09;37.20;100234.27;108302;1254;61115;-76
2023/07/10 10:29:27;;;;;;;;;;;;;;;27.41;36.17;100229.48;108129;1254;74561;-76
2023/07/10 10:31:59;;;;;;;;;;;;;;;27.69;35.34;100219.76;108159;1254;71596;-77
2023/07/10 10:34:40;;;;;;;;;;;;;;;27.87;34.61;100223.66;108181;1254;72471;-77
2023/07/10 10:37:24;;;;;;;;;;;;;;;27.81;33.98;100230.61;108178;1259;61262;-78
2023/07/10 10:40:09;;;;;;;;;;;;;;;27.64;34.44;100233.52;108131;1254;61089;-79
2023/07/10 10:42:41;;;;;;;;;;;;;;;27.18;37.47;100223.79;108174;1254;74472;-79
2023/07/10 10:45:16;;;;;;;;;;;;;;;26.50;37.79;100231.09;108137;1254;72991;-79
2023/07/10 10:47:51;;;;;;;;;;;;;;;25.99;38.31;100232.91;108246;1254;72673;-79
2023/07/10 10:50:29;;;;;;;;;;;;;;;25.67;37.98;100234.20;108276;1254;61145;-80
2023/07/10 10:53:01;;;;;;;;;;;;;;;25.53;39.04;100227.49;108271;1254;61085;-77
2023/07/10 10:55:33;;;;;;;;;;;;;;;25.54;39.83;100223.44;108233;1257;74438;-78
2023/07/10 10:58:18;;;;;;;;;;;;;;;25.64;40.26;100215.48;108276;1254;72750;-78
2023/07/10 11:00:44;;;;;;;;;;;;;;;25.87;40.45;100210.30;108281;1254;71476;-78
2023/07/10 11:03:34;;;;;;;;;;;;;;;26.16;40.61;100206.80;108236;1254;61246;-77
2023/07/10 11:06:17;;;;;;;;;;;;;;;26.51;39.61;100198.88;108170;1257;61100;-76
2023/07/10 11:08:45;;;;;;;;;;;;;;;26.72;38.50;100188.95;108212;1257;73394;-76
2023/07/10 11:11:14;;;;;;;;;;;;;;;26.79;38.17;100193.33;108175;1253;72449;-77
2023/07/10 11:13:41;;;;;;;;;;;;;;;26.87;38.27;100187.92;108184;1253;71751;-78
2023/07/10 11:16:11;;;;;;;;;;;;;;;26.94;36.29;100183.20;108211;1253;61333;-78
2023/07/10 11:18:38;;;;;;;;;;;;;;;26.99;35.37;100178.02;108142;1252;61134;-77
2023/07/10 11:21:07;;;;;;;;;;;;;;;27.14;35.01;100176.30;108177;1254;74446;-77
2023/07/10 11:23:49;;;;;;;;;;;;;;;27.26;34.33;100177.81;108249;1254;72919;-78
2023/07/10 11:26:22;;;;;;;;;;;;;;;27.39;33.98;100174.86;108230;1253;72505;-77
2023/07/10 11:28:50;;;;;;;;;;;;;;;27.56;33.23;100169.73;108234;1253;61338;-77
2023/07/10 11:31:33;;;;;;;;;;;;;;;27.73;32.76;100174.02;108210;1254;61239;-78
2023/07/10 11:34:13;;;;;;;;;;;;;;;27.84;32.24;100169.77;104258;1253;5258841;-78
2023/07/10 11:36:40;;;;;;;;;;;;;;;27.99;32.84;100159.12;108220;1254;71477;-78
2023/07/10 11:39:09;;;;;;;;;;;;;;;28.20;31.20;100167.22;108188;1253;71486;-78
2023/07/10 11:41:45;;;;;;;;;;;;;;;28.27;30.56;100162.30;108200;1254;61176;-77
2023/07/10 11:44:17;;;;;;;;;;;;;;;28.24;30.86;100161.73;108223;1253;61134;-77
2023/07/10 11:47:02;;;;;;;;;;;;;;;28.10;31.23;100168.11;108170;1254;73270;-77
2023/07/10 11:49:34;;;;;;;;;;;;;;;27.85;31.79;100162.55;108205;1253;63996;-77
2023/07/10 11:52:13;;;;;;;;;;;;;;;27.48;32.83;100168.52;108262;1253;72566;-78
2023/07/10 11:54:54;;;;;;;;;;;;;;;27.12;33.72;100175.02;108169;1254;61255;-79
2023/07/10 11:57:24;;;;;;;;;;;;;;;26.80;34.89;100180.03;108188;1253;61172;-78
2023/07/10 11:59:51;;;;;;;;;;;;;;;26.54;35.97;100190.46;108219;1257;74700;-77
2023/07/10 12:02:23;;;;;;;;;;;;;;;26.33;36.05;100196.76;108187;1254;72808;-78
2023/07/10 12:04:50;;;;;;;;;;;;;;;26.18;36.01;100200.48;108208;1253;72769;-78
2023/07/10 12:07:16;;;;;;;;;;;;;;;26.11;36.36;100202.98;108184;1254;61157;-78
2023/07/10 12:09:43;;;;;;;;;;;;;;;26.13;36.49;100196.52;108228;1253;61202;-78
2023/07/10 12:12:10;;;;;;;;;;;;;;;26.28;36.78;100200.45;108239;1253;61311;-79
2023/07/10 12:14:37;;;;;;;;;;;;;;;26.50;36.97;100195.42;108206;1253;71224;-77
2023/07/10 12:17:03;;;;;;;;;;;;;;;26.71;36.66;100189.65;108194;1253;61155;-77
2023/07/10 12:19:50;;;;;;;;;;;;;;;26.95;36.22;100194.04;108159;1254;61274;-78
2023/07/10 12:22:21;;;;;;;;;;;;;;;27.14;35.96;100192.50;108219;1253;61142;-76
2023/07/10 12:24:52;;;;;;;;;;;;;;;27.30;35.59;100183.80;108149;1257;74677;-77
2023/07/10 12:27:20;;;;;;;;;;;;;;;27.36;35.17;100191.37;108215;1254;71223;-77
2023/07/10 12:30:19;;;;;;;;;;;;;;;27.37;34.77;100201.48;108181;1253;72540;-78
2023/07/10 12:32:47;;;;;;;;;;;;;;;27.31;34.56;100198.06;108180;1254;61131;-77
2023/07/10 12:35:22;;;;;;;;;;;;;;;27.30;35.00;100196.50;108176;1253;61086;-77
2023/07/10 12:37:49;;;;;;;;;;;;;;;27.42;35.09;100189.21;108190;1256;74779;-78
2023/07/10 12:40:17;;;;;;;;;;;;;;;27.53;34.93;100188.29;108184;1253;72785;-78
2023/07/10 12:42:45;;;;;;;;;;;;;;;27.55;35.06;100189.40;108207;1253;64083;-78